createdAt,value
2023-04-15T00:00:56.946Z,99.44
2023-04-15T00:01:57.943Z,99.54
2023-04-15T00:02:58.520Z,99.65
2023-04-15T00:03:59.096Z,99.75
2023-04-15T00:04:59.938Z,99.75
2023-04-15T00:06:00.789Z,99.85
2023-04-15T00:07:01.665Z,99.96
2023-04-15T00:08:02.573Z,99.99
2023-04-15T00:09:03.582Z,99.96
2023-04-15T00:10:04.030Z,99.96
2023-04-15T00:11:04.909Z,99.96
2023-04-15T00:12:05.778Z,99.85
2023-04-15T00:13:06.657Z,99.75
2023-04-15T00:14:07.589Z,99.75
2023-04-15T00:15:08.431Z,99.65
2023-04-15T00:16:09.305Z,99.54
2023-04-15T00:17:10.199Z,99.54
2023-04-15T00:18:11.066Z,99.54
2023-04-15T00:19:12.128Z,99.54
2023-04-15T00:20:12.542Z,99.54
2023-04-15T00:21:13.391Z,99.54
2023-04-15T00:22:14.260Z,99.54
2023-04-15T00:23:15.139Z,99.44
2023-04-15T00:24:16.019Z,99.33
2023-04-15T00:25:16.908Z,99.33
2023-04-15T00:26:17.813Z,99.23
2023-04-15T00:27:18.661Z,99.13
2023-04-15T00:28:19.535Z,99.13
2023-04-15T00:29:20.426Z,99.02
2023-04-15T00:30:21.302Z,99.02
2023-04-15T00:31:22.216Z,99.02
2023-04-15T00:32:23.114Z,99.02
2023-04-15T00:33:24.006Z,99.02
2023-04-15T00:34:24.879Z,99.13
2023-04-15T00:35:25.768Z,99.13
2023-04-15T00:36:26.632Z,99.13
2023-04-15T00:37:27.535Z,99.23
2023-04-15T00:38:28.380Z,99.23
2023-04-15T00:39:29.271Z,99.13
2023-04-15T00:40:30.155Z,99.13
2023-04-15T00:41:31.023Z,98.92
2023-04-15T00:42:31.902Z,98.82
2023-04-15T00:43:32.841Z,98.92
2023-04-15T00:44:33.687Z,98.96
2023-04-15T00:45:34.594Z,98.96
2023-04-15T00:46:35.433Z,99.07
2023-04-15T00:47:36.340Z,99.17
2023-04-15T00:48:37.192Z,99.17
2023-04-15T00:49:38.130Z,99.27
2023-04-15T00:50:39.030Z,99.38
2023-04-15T00:51:39.851Z,99.48
2023-04-15T00:52:40.856Z,99.59
2023-04-15T00:53:41.287Z,99.69
2023-04-15T00:54:42.170Z,99.80
2023-04-15T00:55:43.083Z,99.99
2023-04-15T00:56:43.926Z,99.99
2023-04-15T00:57:44.814Z,99.99
2023-04-15T00:58:45.673Z,99.99
2023-04-15T00:59:46.577Z,99.99
2023-04-15T01:00:47.450Z,99.99
2023-04-15T01:01:48.478Z,99.99
2023-04-15T01:02:48.982Z,99.99
2023-04-15T01:03:50.059Z,99.99
2023-04-15T01:04:50.591Z,99.99
2023-04-15T01:05:51.479Z,99.99
2023-04-15T01:06:52.342Z,99.99
2023-04-15T01:07:53.266Z,99.99
2023-04-15T01:08:54.093Z,99.99
2023-04-15T01:09:54.986Z,99.99
2023-04-15T01:10:55.875Z,99.99
2023-04-15T01:11:56.772Z,99.99
2023-04-15T01:12:57.616Z,99.99
2023-04-15T01:13:58.529Z,99.99
2023-04-15T01:14:59.399Z,99.99
2023-04-15T01:16:00.303Z,99.99
2023-04-15T01:17:01.145Z,99.99
2023-04-15T01:18:02.041Z,99.99
2023-04-15T01:19:03.164Z,99.99
2023-04-15T01:20:03.710Z,99.99
2023-04-15T01:21:04.571Z,99.99
2023-04-15T01:22:05.423Z,99.99
2023-04-15T01:23:06.315Z,99.99
2023-04-15T01:24:07.183Z,99.99
2023-04-15T01:25:08.060Z,99.99
2023-04-15T01:26:08.981Z,99.99
2023-04-15T01:27:09.837Z,99.99
2023-04-15T01:28:10.703Z,99.99
2023-04-15T01:29:11.593Z,99.90
2023-04-15T01:30:12.459Z,99.90
2023-04-15T01:31:13.455Z,99.90
2023-04-15T01:32:13.901Z,99.99
2023-04-15T01:33:14.743Z,99.99
2023-04-15T01:34:15.642Z,99.99
2023-04-15T01:35:16.523Z,99.99
2023-04-15T01:36:17.427Z,99.99
2023-04-15T01:37:18.288Z,99.99
2023-04-15T01:38:19.168Z,99.99
2023-04-15T01:39:20.049Z,99.99
2023-04-15T01:40:20.933Z,99.99
2023-04-15T01:41:21.815Z,99.99
2023-04-15T01:42:22.712Z,99.99
2023-04-15T01:43:23.575Z,99.99
2023-04-15T01:44:24.451Z,99.99
2023-04-15T01:45:25.339Z,99.99
2023-04-15T01:46:26.241Z,99.99
2023-04-15T01:47:27.122Z,99.90
2023-04-15T01:48:27.974Z,99.80
2023-04-15T01:49:28.849Z,99.80
2023-04-15T01:50:29.745Z,99.80
2023-04-15T01:51:30.633Z,99.80
2023-04-15T01:52:31.484Z,99.80
2023-04-15T01:53:32.367Z,99.80
2023-04-15T01:54:33.251Z,99.90
2023-04-15T01:55:34.138Z,99.90
2023-04-15T01:56:35.034Z,99.99
2023-04-15T01:57:35.895Z,99.99
2023-04-15T01:58:36.766Z,99.99
2023-04-15T01:59:37.648Z,99.99
2023-04-15T02:00:38.556Z,99.99
2023-04-15T02:01:39.416Z,99.99
2023-04-15T02:02:40.404Z,99.99
2023-04-15T02:03:40.927Z,99.99
2023-04-15T02:04:41.350Z,99.99
2023-04-15T02:05:42.240Z,99.99
2023-04-15T02:06:43.136Z,99.99
2023-04-15T02:07:44.001Z,99.99
2023-04-15T02:08:44.872Z,99.99
2023-04-15T02:09:45.394Z,99.99
2023-04-15T02:10:46.284Z,99.99
2023-04-15T02:11:47.180Z,99.99
2023-04-15T02:12:48.044Z,99.99
2023-04-15T02:13:48.921Z,99.99
2023-04-15T02:14:49.850Z,99.99
2023-04-15T02:15:50.726Z,99.99
2023-04-15T02:16:51.744Z,99.99
2023-04-15T02:17:52.190Z,99.99
2023-04-15T02:18:53.057Z,99.99
2023-04-15T02:19:53.988Z,99.99
2023-04-15T02:20:54.841Z,99.99
2023-04-15T02:21:55.728Z,99.99
2023-04-15T02:22:56.588Z,99.99
2023-04-15T02:23:57.461Z,99.99
2023-04-15T02:24:58.330Z,99.99
2023-04-15T02:25:59.271Z,99.99
2023-04-15T02:27:00.133Z,99.99
2023-04-15T02:28:00.997Z,99.99
2023-04-15T02:29:01.989Z,99.99
2023-04-15T02:30:02.448Z,99.99
2023-04-15T02:31:03.327Z,99.99
2023-04-15T02:32:04.363Z,99.99
2023-04-15T02:33:04.768Z,99.99
2023-04-15T02:34:05.644Z,99.99
2023-04-15T02:35:06.523Z,99.99
2023-04-15T02:36:07.414Z,99.99
2023-04-15T02:37:08.454Z,99.99
2023-04-15T02:38:09.297Z,99.99
2023-04-15T02:39:10.142Z,99.99
2023-04-15T02:40:11.023Z,99.99
2023-04-15T02:41:11.905Z,99.99
2023-04-15T02:42:12.782Z,99.99
2023-04-15T02:43:13.652Z,99.99
2023-04-15T02:44:14.584Z,99.99
2023-04-15T02:45:15.421Z,99.99
2023-04-15T02:46:16.365Z,99.99
2023-04-15T02:47:17.192Z,99.99
2023-04-15T02:48:18.101Z,99.99
2023-04-15T02:49:18.946Z,99.99
2023-04-15T02:50:19.862Z,99.80
2023-04-15T02:51:20.736Z,99.69
2023-04-15T02:52:21.627Z,99.59
2023-04-15T02:53:22.481Z,99.48
2023-04-15T02:54:23.356Z,99.48
2023-04-15T02:55:24.225Z,99.48
2023-04-15T02:56:25.168Z,99.38
2023-04-15T02:57:26.010Z,99.27
2023-04-15T02:58:26.887Z,99.27
2023-04-15T02:59:27.759Z,99.27
2023-04-15T03:00:28.635Z,99.27
2023-04-15T03:01:29.527Z,99.27
2023-04-15T03:02:30.536Z,99.38
2023-04-15T03:03:31.440Z,99.38
2023-04-15T03:04:32.306Z,99.38
2023-04-15T03:05:33.179Z,99.27
2023-04-15T03:06:34.066Z,99.27
2023-04-15T03:07:34.967Z,99.38
2023-04-15T03:08:35.851Z,99.27
2023-04-15T03:09:36.713Z,99.27
2023-04-15T03:10:37.589Z,99.48
2023-04-15T03:11:38.470Z,99.48
2023-04-15T03:12:39.357Z,99.48
2023-04-15T03:13:40.228Z,99.48
2023-04-15T03:14:41.151Z,99.59
2023-04-15T03:15:42.074Z,99.59
2023-04-15T03:16:42.969Z,99.59
2023-04-15T03:17:43.853Z,99.69
2023-04-15T03:18:44.729Z,99.59
2023-04-15T03:19:45.604Z,99.59
2023-04-15T03:20:46.638Z,99.69
2023-04-15T03:21:47.019Z,99.69
2023-04-15T03:22:47.938Z,99.69
2023-04-15T03:23:48.771Z,99.69
2023-04-15T03:24:49.651Z,99.69
2023-04-15T03:25:50.531Z,99.69
2023-04-15T03:26:51.464Z,99.69
2023-04-15T03:27:52.308Z,99.69
2023-04-15T03:28:53.246Z,99.80
2023-04-15T03:29:54.067Z,99.80
2023-04-15T03:30:54.979Z,99.69
2023-04-15T03:31:55.828Z,99.69
2023-04-15T03:32:56.785Z,99.69
2023-04-15T03:33:57.603Z,99.69
2023-04-15T03:34:58.505Z,99.69
2023-04-15T03:35:59.382Z,99.69
2023-04-15T03:37:00.263Z,99.69
2023-04-15T03:38:01.162Z,99.69
2023-04-15T03:39:02.291Z,99.69
2023-04-15T03:40:02.852Z,99.69
2023-04-15T03:41:03.753Z,99.59
2023-04-15T03:42:04.635Z,99.59
2023-04-15T03:43:05.519Z,99.59
2023-04-15T03:44:06.405Z,99.59
2023-04-15T03:45:07.340Z,99.48
2023-04-15T03:46:08.200Z,99.48
2023-04-15T03:47:09.079Z,99.38
2023-04-15T03:48:17.349Z,99.48
2023-04-15T03:49:11.700Z,99.59
2023-04-15T03:50:11.584Z,99.48
2023-04-15T03:51:12.141Z,99.48
2023-04-15T03:52:12.980Z,99.38
2023-04-15T03:53:13.881Z,99.48
2023-04-15T03:54:14.730Z,99.38
2023-04-15T03:55:15.608Z,99.38
2023-04-15T03:56:16.506Z,99.38
2023-04-15T03:57:17.421Z,99.38
2023-04-15T03:58:18.272Z,99.27
2023-04-15T03:59:19.157Z,99.27
2023-04-15T04:00:20.043Z,99.17
2023-04-15T04:01:20.977Z,98.96
2023-04-15T04:02:21.938Z,99.17
2023-04-15T04:03:22.692Z,99.17
2023-04-15T04:04:23.358Z,99.17
2023-04-15T04:05:23.816Z,99.17
2023-04-15T04:06:24.709Z,99.17
2023-04-15T04:07:25.584Z,99.38
2023-04-15T04:08:26.480Z,99.38
2023-04-15T04:09:27.399Z,99.38
2023-04-15T04:10:28.226Z,99.48
2023-04-15T04:11:29.115Z,99.48
2023-04-15T04:12:29.995Z,99.48
2023-04-15T04:13:30.829Z,99.59
2023-04-15T04:14:31.692Z,99.59
2023-04-15T04:15:32.645Z,99.59
2023-04-15T04:16:33.509Z,99.69
2023-04-15T04:17:34.350Z,99.69
2023-04-15T04:18:35.152Z,99.59
2023-04-15T04:19:35.962Z,99.48
2023-04-15T04:20:36.810Z,99.38
2023-04-15T04:21:37.744Z,99.38
2023-04-15T04:22:38.600Z,99.38
2023-04-15T04:23:39.489Z,99.48
2023-04-15T04:24:40.296Z,99.48
2023-04-15T04:25:41.135Z,99.48
2023-04-15T04:26:41.975Z,99.48
2023-04-15T04:27:42.901Z,99.48
2023-04-15T04:28:43.663Z,99.48
2023-04-15T04:29:44.486Z,99.59
2023-04-15T04:30:45.304Z,99.59
2023-04-15T04:31:46.180Z,99.69
2023-04-15T04:32:47.011Z,99.69
2023-04-15T04:33:47.879Z,99.69
2023-04-15T04:34:48.657Z,99.80
2023-04-15T04:35:49.478Z,99.69
2023-04-15T04:36:50.322Z,99.69
2023-04-15T04:37:51.160Z,99.59
2023-04-15T04:38:52.007Z,99.69
2023-04-15T04:39:52.792Z,99.80
2023-04-15T04:40:53.670Z,99.69
2023-04-15T04:41:54.518Z,99.80
2023-04-15T04:42:55.346Z,99.80
2023-04-15T04:43:56.164Z,99.80
2023-04-15T04:44:56.988Z,99.80
2023-04-15T04:45:57.835Z,99.80
2023-04-15T04:46:58.716Z,99.80
2023-04-15T04:47:59.605Z,99.80
2023-04-15T04:49:00.537Z,99.69
2023-04-15T04:50:01.400Z,99.80
2023-04-15T04:51:02.223Z,99.69
2023-04-15T04:52:03.047Z,99.59
2023-04-15T04:53:03.916Z,99.48
2023-04-15T04:54:04.736Z,99.48
2023-04-15T04:55:05.553Z,99.48
2023-04-15T04:56:06.359Z,99.38
2023-04-15T04:57:07.191Z,99.38
2023-04-15T04:58:08.023Z,99.38
2023-04-15T04:59:08.886Z,99.48
2023-04-15T05:00:09.704Z,99.48
2023-04-15T05:01:10.630Z,99.48
2023-04-15T05:02:11.508Z,99.38
2023-04-15T05:03:12.477Z,99.27
2023-04-15T05:04:12.981Z,99.38
2023-04-15T05:05:13.859Z,99.27
2023-04-15T05:06:14.650Z,99.27
2023-04-15T05:07:15.501Z,99.27
2023-04-15T05:08:16.334Z,99.48
2023-04-15T05:09:17.168Z,99.59
2023-04-15T05:10:17.989Z,99.59
2023-04-15T05:11:18.845Z,99.69
2023-04-15T05:12:19.640Z,99.69
2023-04-15T05:13:20.467Z,99.59
2023-04-15T05:14:22.928Z,99.59
2023-04-15T05:15:22.180Z,99.48
2023-04-15T05:16:23.146Z,99.07
2023-04-15T05:17:23.663Z,98.96
2023-04-15T05:18:24.447Z,98.75
2023-04-15T05:19:25.255Z,98.44
2023-04-15T05:20:26.075Z,98.02
2023-04-15T05:21:26.912Z,97.92
2023-04-15T05:22:27.742Z,97.50
2023-04-15T05:23:28.606Z,96.56
2023-04-15T05:24:29.430Z,96.25
2023-04-15T05:25:30.228Z,96.31
2023-04-15T05:26:31.054Z,96.11
2023-04-15T05:27:31.922Z,96.11
2023-04-15T05:28:32.752Z,95.79
2023-04-15T05:29:33.602Z,95.68
2023-04-15T05:30:34.399Z,95.48
2023-04-15T05:31:35.329Z,95.27
2023-04-15T05:32:36.203Z,94.96
2023-04-15T05:33:36.979Z,95.06
2023-04-15T05:34:37.802Z,94.60
2023-04-15T05:35:38.663Z,94.60
2023-04-15T05:36:39.457Z,94.60
2023-04-15T05:37:40.287Z,94.70
2023-04-15T05:38:41.109Z,94.70
2023-04-15T05:39:41.955Z,94.81
2023-04-15T05:40:42.749Z,95.12
2023-04-15T05:41:43.606Z,95.54
2023-04-15T05:42:44.418Z,95.64
2023-04-15T05:43:45.240Z,95.54
2023-04-15T05:44:46.057Z,95.54
2023-04-15T05:45:46.932Z,95.64
2023-04-15T05:46:47.701Z,95.85
2023-04-15T05:47:48.720Z,96.06
2023-04-15T05:48:49.512Z,96.16
2023-04-15T05:49:50.338Z,96.26
2023-04-15T05:50:51.160Z,96.26
2023-04-15T05:51:51.992Z,96.37
2023-04-15T05:52:52.819Z,96.37
2023-04-15T05:53:53.679Z,96.26
2023-04-15T05:54:54.497Z,96.37
2023-04-15T05:55:55.290Z,96.37
2023-04-15T05:56:56.103Z,96.48
2023-04-15T05:57:56.935Z,96.58
2023-04-15T05:58:57.754Z,96.58
2023-04-15T05:59:58.620Z,96.58
2023-04-15T06:00:59.413Z,96.58
2023-04-15T06:02:00.252Z,96.37
2023-04-15T06:03:01.127Z,95.43
2023-04-15T06:04:02.093Z,94.81
2023-04-15T06:05:02.962Z,95.02
2023-04-15T06:06:03.927Z,95.39
2023-04-15T06:07:04.718Z,95.70
2023-04-15T06:08:05.554Z,95.60
2023-04-15T06:09:06.372Z,94.14
2023-04-15T06:10:07.240Z,93.41
2023-04-15T06:11:08.014Z,92.79
2023-04-15T06:12:08.861Z,92.06
2023-04-15T06:13:09.715Z,91.64
2023-04-15T06:14:10.506Z,91.64
2023-04-15T06:15:11.326Z,91.12
2023-04-15T06:16:12.188Z,91.28
2023-04-15T06:17:12.975Z,90.56
2023-04-15T06:18:13.885Z,90.04
2023-04-15T06:19:14.939Z,90.66
2023-04-15T06:20:15.240Z,90.35
2023-04-15T06:21:16.059Z,89.83
2023-04-15T06:22:16.883Z,89.94
2023-04-15T06:23:17.706Z,90.45
2023-04-15T06:24:18.577Z,90.56
2023-04-15T06:25:19.387Z,90.25
2023-04-15T06:26:20.192Z,90.00
2023-04-15T06:27:21.017Z,89.69
2023-04-15T06:28:21.852Z,89.48
2023-04-15T06:29:22.669Z,89.37
2023-04-15T06:30:24.499Z,89.69
2023-04-15T06:31:24.341Z,89.58
2023-04-15T06:32:25.184Z,89.89
2023-04-15T06:33:25.989Z,89.69
2023-04-15T06:34:26.795Z,88.64
2023-04-15T06:35:27.614Z,88.33
2023-04-15T06:36:28.487Z,88.60
2023-04-15T06:37:29.276Z,88.19
2023-04-15T06:38:30.108Z,87.66
2023-04-15T06:39:30.925Z,87.98
2023-04-15T06:40:31.771Z,88.60
2023-04-15T06:41:32.585Z,87.66
2023-04-15T06:42:33.450Z,87.56
2023-04-15T06:43:34.239Z,87.25
2023-04-15T06:44:35.065Z,86.90
2023-04-15T06:45:35.954Z,86.38
2023-04-15T06:46:36.743Z,87.01
2023-04-15T06:47:37.709Z,87.69
2023-04-15T06:48:39.046Z,87.48
2023-04-15T06:49:39.338Z,87.27
2023-04-15T06:50:40.181Z,86.93
2023-04-15T06:51:40.996Z,86.30
2023-04-15T06:52:41.828Z,86.72
2023-04-15T06:53:42.662Z,85.12
2023-04-15T06:54:43.528Z,84.39
2023-04-15T06:55:44.342Z,83.98
2023-04-15T06:56:45.151Z,83.84
2023-04-15T06:57:45.964Z,83.53
2023-04-15T06:58:46.787Z,83.01
2023-04-15T06:59:47.613Z,82.14
2023-04-15T07:00:48.458Z,82.24
2023-04-15T07:01:49.342Z,82.55
2023-04-15T07:02:50.190Z,82.97
2023-04-15T07:03:51.004Z,82.03
2023-04-15T07:04:51.801Z,82.45
2023-04-15T07:05:52.624Z,82.34
2023-04-15T07:06:53.444Z,82.55
2023-04-15T07:07:54.305Z,82.55
2023-04-15T07:08:55.134Z,82.14
2023-04-15T07:09:55.950Z,82.03
2023-04-15T07:10:56.794Z,82.14
2023-04-15T07:11:57.593Z,81.82
2023-04-15T07:12:58.426Z,82.14
2023-04-15T07:13:59.291Z,82.65
2023-04-15T07:15:00.101Z,82.97
2023-04-15T07:16:00.915Z,83.17
2023-04-15T07:17:01.791Z,83.03
2023-04-15T07:18:02.631Z,82.20
2023-04-15T07:19:03.775Z,82.68
2023-04-15T07:20:04.333Z,82.58
2023-04-15T07:21:05.149Z,82.06
2023-04-15T07:22:05.971Z,81.30
2023-04-15T07:23:06.783Z,81.71
2023-04-15T07:24:07.651Z,80.95
2023-04-15T07:25:08.470Z,79.67
2023-04-15T07:26:09.353Z,79.74
2023-04-15T07:27:10.139Z,79.43
2023-04-15T07:28:10.952Z,79.29
2023-04-15T07:29:11.793Z,79.80
2023-04-15T07:30:12.643Z,79.77
2023-04-15T07:31:13.460Z,78.63
2023-04-15T07:32:14.336Z,77.56
2023-04-15T07:33:15.119Z,78.08
2023-04-15T07:34:15.946Z,77.73
2023-04-15T07:35:16.836Z,77.32
2023-04-15T07:36:17.636Z,77.42
2023-04-15T07:37:18.462Z,75.57
2023-04-15T07:38:19.324Z,76.18
2023-04-15T07:39:20.490Z,74.53
2023-04-15T07:40:20.807Z,74.63
2023-04-15T07:41:21.786Z,74.63
2023-04-15T07:42:22.542Z,74.05
2023-04-15T07:43:23.373Z,74.05
2023-04-15T07:44:24.234Z,74.57
2023-04-15T07:45:25.038Z,73.98
2023-04-15T07:46:25.888Z,73.98
2023-04-15T07:47:26.788Z,73.50
2023-04-15T07:48:27.542Z,75.26
2023-04-15T07:49:28.376Z,74.74
2023-04-15T07:50:29.240Z,75.05
2023-04-15T07:51:30.038Z,76.18
2023-04-15T07:52:30.843Z,75.98
2023-04-15T07:53:31.672Z,75.26
2023-04-15T07:54:32.506Z,76.09
2023-04-15T07:55:33.337Z,76.09
2023-04-15T07:56:34.197Z,75.15
2023-04-15T07:57:34.990Z,74.95
2023-04-15T07:58:35.809Z,74.77
2023-04-15T07:59:36.653Z,74.05
2023-04-15T08:00:37.464Z,73.43
2023-04-15T08:01:38.328Z,73.22
2023-04-15T08:02:40.473Z,73.94
2023-04-15T08:03:40.119Z,74.88
2023-04-15T08:04:40.790Z,75.40
2023-04-15T08:05:41.210Z,75.60
2023-04-15T08:06:42.040Z,75.63
2023-04-15T08:07:42.888Z,74.60
2023-04-15T08:08:43.688Z,74.71
2023-04-15T08:09:44.518Z,75.12
2023-04-15T08:10:45.336Z,75.63
2023-04-15T08:11:46.187Z,76.26
2023-04-15T08:12:46.980Z,75.95
2023-04-15T08:13:47.820Z,76.57
2023-04-15T08:14:48.635Z,74.91
2023-04-15T08:15:49.515Z,75.63
2023-04-15T08:16:50.313Z,75.12
2023-04-15T08:17:51.284Z,75.53
2023-04-15T08:18:52.140Z,75.63
2023-04-15T08:19:52.986Z,75.53
2023-04-15T08:20:53.783Z,75.53
2023-04-15T08:21:54.710Z,75.32
2023-04-15T08:22:55.485Z,75.53
2023-04-15T08:23:56.321Z,75.53
2023-04-15T08:24:57.138Z,74.29
2023-04-15T08:25:57.982Z,73.77
2023-04-15T08:26:58.817Z,74.60
2023-04-15T08:27:59.623Z,74.91
2023-04-15T08:29:00.759Z,75.09
2023-04-15T08:30:04.213Z,75.29
2023-04-15T08:31:02.203Z,75.40
2023-04-15T08:32:03.050Z,74.88
2023-04-15T08:33:03.837Z,74.88
2023-04-15T08:34:04.669Z,74.77
2023-04-15T08:35:05.525Z,74.46
2023-04-15T08:36:06.347Z,74.88
2023-04-15T08:37:07.185Z,74.63
2023-04-15T08:38:08.039Z,74.53
2023-04-15T08:39:08.840Z,75.05
2023-04-15T08:40:09.660Z,75.05
2023-04-15T08:41:10.473Z,74.84
2023-04-15T08:42:11.327Z,74.29
2023-04-15T08:43:12.135Z,74.29
2023-04-15T08:44:13.029Z,73.77
2023-04-15T08:45:13.831Z,73.57
2023-04-15T08:46:14.654Z,74.19
2023-04-15T08:47:15.469Z,74.60
2023-04-15T08:48:16.299Z,73.67
2023-04-15T08:49:17.111Z,73.36
2023-04-15T08:50:17.987Z,73.57
2023-04-15T08:51:18.791Z,73.57
2023-04-15T08:52:19.615Z,72.30
2023-04-15T08:53:20.431Z,73.22
2023-04-15T08:54:21.249Z,72.91
2023-04-15T08:55:22.084Z,74.05
2023-04-15T08:56:22.937Z,73.85
2023-04-15T08:57:23.752Z,73.64
2023-04-15T08:58:24.550Z,73.54
2023-04-15T08:59:25.380Z,73.64
2023-04-15T09:00:26.204Z,73.85
2023-04-15T09:01:27.098Z,73.95
2023-04-15T09:02:28.000Z,74.15
2023-04-15T09:03:28.972Z,74.15
2023-04-15T09:04:29.792Z,74.36
2023-04-15T09:05:30.624Z,74.05
2023-04-15T09:06:31.442Z,73.22
2023-04-15T09:07:32.302Z,72.88
2023-04-15T09:08:33.104Z,73.50
2023-04-15T09:09:33.918Z,73.81
2023-04-15T09:10:34.739Z,72.88
2023-04-15T09:11:35.579Z,72.67
2023-04-15T09:12:36.527Z,71.75
2023-04-15T09:13:37.317Z,71.44
2023-04-15T09:14:38.173Z,71.95
2023-04-15T09:15:39.009Z,71.09
2023-04-15T09:16:39.807Z,71.30
2023-04-15T09:17:40.675Z,71.71
2023-04-15T09:18:41.454Z,71.92
2023-04-15T09:19:42.280Z,71.51
2023-04-15T09:20:43.152Z,71.61
2023-04-15T09:21:43.959Z,71.81
2023-04-15T09:22:44.766Z,71.20
2023-04-15T09:23:45.590Z,71.51
2023-04-15T09:24:46.407Z,70.27
2023-04-15T09:25:47.240Z,70.37
2023-04-15T09:26:48.085Z,70.99
2023-04-15T09:27:48.904Z,71.61
2023-04-15T09:28:49.704Z,71.51
2023-04-15T09:29:50.528Z,71.20
2023-04-15T09:30:51.395Z,70.27
2023-04-15T09:31:52.190Z,70.89
2023-04-15T09:32:53.066Z,70.78
2023-04-15T09:33:53.836Z,71.41
2023-04-15T09:34:54.651Z,72.13
2023-04-15T09:35:55.497Z,72.02
2023-04-15T09:36:56.325Z,71.61
2023-04-15T09:37:57.133Z,71.61
2023-04-15T09:38:57.990Z,71.41
2023-04-15T09:39:58.781Z,69.85
2023-04-15T09:40:59.604Z,69.44
2023-04-15T09:42:00.430Z,70.37
2023-04-15T09:43:01.293Z,70.37
2023-04-15T09:44:02.256Z,68.82
2023-04-15T09:45:02.677Z,68.82
2023-04-15T09:46:03.534Z,69.75
2023-04-15T09:47:04.317Z,68.82
2023-04-15T09:48:05.191Z,68.93
2023-04-15T09:49:05.967Z,69.65
2023-04-15T09:50:06.794Z,69.96
2023-04-15T09:51:07.656Z,69.85
2023-04-15T09:52:08.535Z,70.78
2023-04-15T09:53:09.356Z,71.30
2023-04-15T09:54:10.176Z,70.68
2023-04-15T09:55:10.996Z,70.37
2023-04-15T09:56:11.841Z,70.27
2023-04-15T09:57:12.717Z,70.34
2023-04-15T09:58:13.539Z,69.82
2023-04-15T09:59:14.328Z,69.31
2023-04-15T10:00:15.189Z,69.41
2023-04-15T10:01:16.020Z,67.86
2023-04-15T10:02:16.875Z,68.38
2023-04-15T10:03:17.941Z,66.11
2023-04-15T10:04:18.524Z,66.94
2023-04-15T10:05:18.918Z,66.94
2023-04-15T10:06:19.757Z,67.55
2023-04-15T10:07:20.646Z,66.60
2023-04-15T10:08:21.447Z,64.43
2023-04-15T10:09:22.292Z,64.43
2023-04-15T10:10:23.093Z,64.95
2023-04-15T10:11:23.921Z,65.15
2023-04-15T10:12:24.746Z,64.12
2023-04-15T10:13:25.575Z,64.22
2023-04-15T10:14:26.369Z,63.60
2023-04-15T10:15:27.206Z,64.32
2023-04-15T10:16:28.081Z,64.84
2023-04-15T10:17:31.146Z,63.81
2023-04-15T10:18:29.513Z,63.19
2023-04-15T10:19:30.328Z,64.22
2023-04-15T10:20:31.157Z,64.22
2023-04-15T10:21:32.034Z,65.25
2023-04-15T10:22:32.886Z,63.50
2023-04-15T10:23:33.666Z,62.78
2023-04-15T10:24:34.520Z,62.88
2023-04-15T10:25:35.304Z,62.47
2023-04-15T10:26:36.143Z,63.09
2023-04-15T10:27:37.073Z,62.88
2023-04-15T10:28:37.866Z,61.54
2023-04-15T10:29:38.670Z,63.29
2023-04-15T10:30:39.510Z,63.40
2023-04-15T10:31:40.365Z,63.81
2023-04-15T10:32:41.185Z,63.09
2023-04-15T10:33:41.980Z,63.71
2023-04-15T10:34:42.806Z,63.71
2023-04-15T10:35:43.628Z,63.60
2023-04-15T10:36:44.463Z,63.92
2023-04-15T10:37:45.278Z,63.40
2023-04-15T10:38:46.130Z,63.29
2023-04-15T10:39:46.940Z,64.12
2023-04-15T10:40:47.774Z,63.92
2023-04-15T10:41:48.604Z,63.50
2023-04-15T10:42:49.439Z,63.29
2023-04-15T10:43:50.263Z,63.60
2023-04-15T10:44:51.086Z,64.40
2023-04-15T10:45:51.891Z,63.47
2023-04-15T10:46:52.767Z,63.37
2023-04-15T10:47:53.565Z,62.96
2023-04-15T10:48:54.394Z,63.27
2023-04-15T10:49:55.198Z,63.06
2023-04-15T10:50:56.066Z,63.78
2023-04-15T10:51:56.868Z,64.92
2023-04-15T10:52:57.696Z,65.33
2023-04-15T10:53:58.502Z,65.64
2023-04-15T10:54:59.329Z,65.12
2023-04-15T10:56:00.166Z,65.12
2023-04-15T10:57:01.025Z,65.33
2023-04-15T10:58:01.823Z,63.99
2023-04-15T10:59:02.668Z,63.68
2023-04-15T11:00:03.467Z,64.71
2023-04-15T11:01:04.359Z,64.40
2023-04-15T11:02:05.241Z,63.99
2023-04-15T11:03:06.193Z,63.89
2023-04-15T11:04:06.984Z,61.41
2023-04-15T11:05:07.546Z,62.75
2023-04-15T11:06:08.371Z,62.13
2023-04-15T11:07:09.197Z,61.72
2023-04-15T11:08:10.012Z,63.37
2023-04-15T11:09:10.893Z,62.85
2023-04-15T11:10:11.695Z,62.85
2023-04-15T11:11:12.506Z,62.99
2023-04-15T11:12:13.326Z,63.29
2023-04-15T11:13:14.150Z,62.88
2023-04-15T11:14:14.986Z,62.99
2023-04-15T11:15:15.821Z,64.22
2023-04-15T11:16:16.644Z,62.99
2023-04-15T11:17:17.456Z,62.68
2023-04-15T11:18:18.277Z,62.71
2023-04-15T11:19:19.101Z,62.92
2023-04-15T11:20:19.924Z,63.84
2023-04-15T11:21:20.774Z,63.74
2023-04-15T11:22:21.594Z,63.12
2023-04-15T11:23:22.408Z,63.22
2023-04-15T11:24:23.226Z,63.32
2023-04-15T11:25:24.063Z,63.32
2023-04-15T11:26:24.889Z,63.35
2023-04-15T11:27:25.743Z,63.35
2023-04-15T11:28:26.544Z,63.87
2023-04-15T11:29:27.392Z,64.28
2023-04-15T11:30:28.187Z,65.21
2023-04-15T11:31:29.067Z,65.94
2023-04-15T11:32:29.853Z,66.24
2023-04-15T11:33:30.818Z,67.58
2023-04-15T11:34:31.612Z,68.34
2023-04-15T11:35:32.429Z,69.17
2023-04-15T11:36:33.265Z,69.58
2023-04-15T11:37:34.078Z,69.78
2023-04-15T11:38:34.912Z,71.23
2023-04-15T11:39:35.743Z,70.85
2023-04-15T11:40:36.557Z,71.06
2023-04-15T11:41:37.385Z,71.37
2023-04-15T11:42:49.195Z,71.37
2023-04-15T11:43:39.945Z,71.57
2023-04-15T11:44:39.759Z,71.57
2023-04-15T11:45:40.612Z,71.57
2023-04-15T11:46:41.402Z,71.98
2023-04-15T11:47:42.259Z,72.09
2023-04-15T11:48:43.048Z,72.40
2023-04-15T11:49:43.873Z,73.33
2023-04-15T11:50:44.692Z,73.64
2023-04-15T11:51:45.549Z,74.15
2023-04-15T11:52:46.352Z,73.33
2023-04-15T11:53:47.181Z,73.54
2023-04-15T11:54:47.993Z,74.46
2023-04-15T11:55:48.812Z,74.36
2023-04-15T11:56:49.643Z,74.98
2023-04-15T11:57:50.486Z,75.95
2023-04-15T11:58:51.304Z,76.05
2023-04-15T11:59:52.140Z,76.26
2023-04-15T12:00:52.965Z,76.56
2023-04-15T12:01:53.806Z,76.98
2023-04-15T12:02:54.684Z,77.39
2023-04-15T12:03:55.580Z,76.77
2023-04-15T12:04:56.430Z,76.67
2023-04-15T12:05:57.220Z,76.50
2023-04-15T12:06:58.048Z,76.81
2023-04-15T12:07:58.890Z,78.15
2023-04-15T12:08:59.692Z,78.25
2023-04-15T12:10:00.534Z,78.88
2023-04-15T12:11:01.384Z,78.88
2023-04-15T12:12:02.186Z,79.08
2023-04-15T12:13:03.128Z,79.08
2023-04-15T12:14:04.148Z,79.29
2023-04-15T12:15:04.540Z,79.19
2023-04-15T12:16:05.430Z,79.80
2023-04-15T12:17:06.274Z,80.11
2023-04-15T12:18:07.116Z,79.94
2023-04-15T12:19:08.033Z,80.46
2023-04-15T12:20:08.859Z,80.26
2023-04-15T12:21:09.684Z,79.94
2023-04-15T12:22:10.531Z,80.05
2023-04-15T12:23:11.344Z,79.94
2023-04-15T12:24:12.169Z,79.94
2023-04-15T12:25:12.990Z,80.26
2023-04-15T12:26:13.801Z,80.26
2023-04-15T12:27:14.651Z,80.36
2023-04-15T12:28:15.496Z,79.94
2023-04-15T12:29:16.298Z,80.05
2023-04-15T12:30:17.139Z,80.15
2023-04-15T12:31:17.970Z,80.46
2023-04-15T12:32:18.815Z,80.88
2023-04-15T12:33:19.592Z,81.39
2023-04-15T12:34:20.441Z,82.01
2023-04-15T12:35:21.249Z,82.43
2023-04-15T12:36:22.076Z,82.64
2023-04-15T12:37:22.906Z,82.43
2023-04-15T12:38:23.729Z,82.12
2023-04-15T12:39:24.570Z,81.91
2023-04-15T12:40:25.413Z,82.12
2023-04-15T12:41:26.212Z,81.60
2023-04-15T12:42:27.046Z,81.70
2023-04-15T12:43:27.866Z,81.91
2023-04-15T12:44:28.698Z,82.22
2023-04-15T12:45:30.013Z,82.64
2023-04-15T12:46:30.392Z,82.43
2023-04-15T12:47:31.190Z,82.64
2023-04-15T12:48:31.995Z,82.64
2023-04-15T12:49:32.950Z,83.36
2023-04-15T12:50:33.740Z,83.05
2023-04-15T12:51:34.558Z,82.84
2023-04-15T12:52:35.427Z,83.15
2023-04-15T12:53:36.232Z,83.36
2023-04-15T12:54:37.058Z,83.46
2023-04-15T12:55:37.879Z,83.77
2023-04-15T12:56:38.701Z,84.39
2023-04-15T12:57:39.526Z,84.91
2023-04-15T12:58:40.384Z,85.26
2023-04-15T12:59:41.186Z,85.57
2023-04-15T13:00:42.027Z,85.78
2023-04-15T13:01:42.883Z,85.68
2023-04-15T13:02:43.833Z,86.19
2023-04-15T13:03:44.817Z,85.99